Newington, Connecticut
Current Conditions -  °F | °C
As of 12:53 PM on Thursday 27 Nov 2014 (Local Time) from KHFD Reporting Station
Overcast Overcast  
Wind Chill:   Ceiling: 2300
Heat Index:   Visibility: 10mi
Dew Point: -3°   Wind: 5mph
Humidity: 70%   Direction: NA
Pressure: 29.97"   Gusts: NA
Location:  41.7°N, 72.73°W
Report Text: KHFD 271753Z VRB04KT 10SM BKN023 OVC035 02/M03 A2997 RMK AO2 SLP148 T00221028 10022 20000 56006
Loading
Personal Weather Stations






























Interactive Weather Map New forecast layout! Learn more

10-Day Weather Forecast

Advertisements
Track Severe Weather on mobile